sensor_id;sensor_type;location;lat;lon;timestamp;P1;durP1;ratioP1;P2;durP2;ratioP2
39404;SDS011;25121;51.090;17.038;2023-04-30T00:00:44;22.98;;;14.55;;
39404;SDS011;25121;51.090;17.038;2023-04-30T00:02:07;24.55;;;15.38;;
39404;SDS011;25121;51.090;17.038;2023-04-30T00:03:30;28.90;;;15.55;;
39404;SDS011;25121;51.090;17.038;2023-04-30T00:04:52;24.08;;;14.52;;
39404;SDS011;25121;51.090;17.038;2023-04-30T00:06:14;23.60;;;15.35;;
39404;SDS011;25121;51.090;17.038;2023-04-30T00:07:40;20.85;;;14.05;;
39404;SDS011;25121;51.090;17.038;2023-04-30T00:09:09;25.90;;;15.32;;
39404;SDS011;25121;51.090;17.038;2023-04-30T00:10:34;22.80;;;14.60;;
39404;SDS011;25121;51.090;17.038;2023-04-30T00:12:07;21.73;;;15.18;;
39404;SDS011;25121;51.090;17.038;2023-04-30T00:13:41;23.08;;;14.70;;
39404;SDS011;25121;51.090;17.038;2023-04-30T00:15:04;27.13;;;14.82;;
39404;SDS011;25121;51.090;17.038;2023-04-30T00:16:26;18.45;;;13.95;;
39404;SDS011;25121;51.090;17.038;2023-04-30T00:17:53;21.27;;;15.25;;
39404;SDS011;25121;51.090;17.038;2023-04-30T00:19:27;24.33;;;14.93;;
39404;SDS011;25121;51.090;17.038;2023-04-30T00:20:56;23.60;;;15.32;;
39404;SDS011;25121;51.090;17.038;2023-04-30T00:22:27;26.05;;;15.23;;
39404;SDS011;25121;51.090;17.038;2023-04-30T00:23:56;20.23;;;14.75;;
39404;SDS011;25121;51.090;17.038;2023-04-30T00:25:28;20.20;;;14.18;;
39404;SDS011;25121;51.090;17.038;2023-04-30T00:26:51;22.30;;;14.98;;
39404;SDS011;25121;51.090;17.038;2023-04-30T00:28:16;18.55;;;14.27;;
39404;SDS011;25121;51.090;17.038;2023-04-30T00:29:50;21.60;;;14.82;;
39404;SDS011;25121;51.090;17.038;2023-04-30T00:31:12;21.58;;;15.00;;
39404;SDS011;25121;51.090;17.038;2023-04-30T00:32:47;24.10;;;15.32;;
39404;SDS011;25121;51.090;17.038;2023-04-30T00:34:12;22.33;;;16.02;;
39404;SDS011;25121;51.090;17.038;2023-04-30T00:35:39;23.52;;;15.02;;
39404;SDS011;25121;51.090;17.038;2023-04-30T00:37:12;20.75;;;14.88;;
39404;SDS011;25121;51.090;17.038;2023-04-30T00:38:38;19.60;;;14.43;;
39404;SDS011;25121;51.090;17.038;2023-04-30T00:41:29;22.13;;;14.98;;
39404;SDS011;25121;51.090;17.038;2023-04-30T00:43:05;19.67;;;14.43;;
39404;SDS011;25121;51.090;17.038;2023-04-30T00:44:29;21.10;;;15.65;;
39404;SDS011;25121;51.090;17.038;2023-04-30T00:45:53;21.58;;;15.63;;
39404;SDS011;25121;51.090;17.038;2023-04-30T00:47:29;22.92;;;15.15;;
39404;SDS011;25121;51.090;17.038;2023-04-30T00:48:56;21.13;;;14.80;;
39404;SDS011;25121;51.090;17.038;2023-04-30T00:50:31;21.95;;;15.32;;
39404;SDS011;25121;51.090;17.038;2023-04-30T00:51:59;22.65;;;14.95;;
39404;SDS011;25121;51.090;17.038;2023-04-30T00:53:40;27.65;;;15.27;;
39404;SDS011;25121;51.090;17.038;2023-04-30T00:55:12;23.38;;;15.40;;
39404;SDS011;25121;51.090;17.038;2023-04-30T00:56:36;17.88;;;14.50;;
39404;SDS011;25121;51.090;17.038;2023-04-30T00:58:01;20.23;;;15.23;;
39404;SDS011;25121;51.090;17.038;2023-04-30T00:59:23;23.27;;;14.15;;
39404;SDS011;25121;51.090;17.038;2023-04-30T01:00:47;21.30;;;15.15;;
39404;SDS011;25121;51.090;17.038;2023-04-30T01:02:13;25.55;;;14.68;;
39404;SDS011;25121;51.090;17.038;2023-04-30T01:03:37;21.80;;;15.40;;
39404;SDS011;25121;51.090;17.038;2023-04-30T01:05:02;18.45;;;15.25;;
39404;SDS011;25121;51.090;17.038;2023-04-30T01:06:30;19.60;;;14.25;;
39404;SDS011;25121;51.090;17.038;2023-04-30T01:07:55;22.92;;;15.20;;
39404;SDS011;25121;51.090;17.038;2023-04-30T01:09:23;22.85;;;14.63;;
39404;SDS011;25121;51.090;17.038;2023-04-30T01:10:51;25.52;;;15.38;;
39404;SDS011;25121;51.090;17.038;2023-04-30T01:12:20;27.33;;;18.83;;
39404;SDS011;25121;51.090;17.038;2023-04-30T01:13:52;32.40;;;25.92;;
39404;SDS011;25121;51.090;17.038;2023-04-30T01:16:56;30.70;;;22.02;;
39404;SDS011;25121;51.090;17.038;2023-04-30T01:18:32;26.80;;;23.75;;
39404;SDS011;25121;51.090;17.038;2023-04-30T01:20:07;27.42;;;19.98;;
39404;SDS011;25121;51.090;17.038;2023-04-30T01:21:31;23.40;;;17.67;;
39404;SDS011;25121;51.090;17.038;2023-04-30T01:22:55;25.20;;;16.90;;
39404;SDS011;25121;51.090;17.038;2023-04-30T01:24:27;28.00;;;16.48;;
39404;SDS011;25121;51.090;17.038;2023-04-30T01:26:09;25.83;;;16.33;;
39404;SDS011;25121;51.090;17.038;2023-04-30T01:27:50;23.38;;;16.38;;
39404;SDS011;25121;51.090;17.038;2023-04-30T01:29:21;21.80;;;15.18;;
39404;SDS011;25121;51.090;17.038;2023-04-30T01:30:46;21.40;;;15.20;;
39404;SDS011;25121;51.090;17.038;2023-04-30T01:32:09;20.15;;;14.60;;
39404;SDS011;25121;51.090;17.038;2023-04-30T01:33:32;22.63;;;15.57;;
39404;SDS011;25121;51.090;17.038;2023-04-30T01:34:53;22.88;;;15.73;;
39404;SDS011;25121;51.090;17.038;2023-04-30T01:36:25;24.50;;;15.75;;
39404;SDS011;25121;51.090;17.038;2023-04-30T01:37:59;25.85;;;15.60;;
39404;SDS011;25121;51.090;17.038;2023-04-30T01:39:47;23.73;;;15.35;;
39404;SDS011;25121;51.090;17.038;2023-04-30T01:41:21;20.55;;;14.93;;
39404;SDS011;25121;51.090;17.038;2023-04-30T01:42:55;22.08;;;14.75;;
39404;SDS011;25121;51.090;17.038;2023-04-30T01:44:30;21.27;;;14.57;;
39404;SDS011;25121;51.090;17.038;2023-04-30T01:47:51;23.35;;;16.20;;
39404;SDS011;25121;51.090;17.038;2023-04-30T01:49:25;22.85;;;18.23;;
39404;SDS011;25121;51.090;17.038;2023-04-30T01:51:03;21.45;;;17.02;;
39404;SDS011;25121;51.090;17.038;2023-04-30T01:52:39;29.23;;;18.13;;
39404;SDS011;25121;51.090;17.038;2023-04-30T01:54:14;32.58;;;17.17;;
39404;SDS011;25121;51.090;17.038;2023-04-30T01:55:50;28.40;;;18.02;;
39404;SDS011;25121;51.090;17.038;2023-04-30T01:57:19;27.02;;;17.52;;
39404;SDS011;25121;51.090;17.038;2023-04-30T01:58:50;28.50;;;18.50;;
39404;SDS011;25121;51.090;17.038;2023-04-30T02:00:17;26.20;;;18.27;;
39404;SDS011;25121;51.090;17.038;2023-04-30T02:01:40;26.38;;;16.20;;
39404;SDS011;25121;51.090;17.038;2023-04-30T02:03:12;22.77;;;15.88;;
39404;SDS011;25121;51.090;17.038;2023-04-30T02:04:38;23.40;;;15.15;;
39404;SDS011;25121;51.090;17.038;2023-04-30T02:05:59;20.05;;;15.40;;
39404;SDS011;25121;51.090;17.038;2023-04-30T02:07:26;22.10;;;16.48;;
39404;SDS011;25121;51.090;17.038;2023-04-30T02:08:58;21.13;;;15.02;;
39404;SDS011;25121;51.090;17.038;2023-04-30T02:10:26;19.77;;;14.13;;
39404;SDS011;25121;51.090;17.038;2023-04-30T02:11:50;25.02;;;16.02;;
39404;SDS011;25121;51.090;17.038;2023-04-30T02:13:13;22.70;;;14.55;;
39404;SDS011;25121;51.090;17.038;2023-04-30T02:14:40;23.20;;;15.57;;
39404;SDS011;25121;51.090;17.038;2023-04-30T02:16:04;19.05;;;13.73;;
39404;SDS011;25121;51.090;17.038;2023-04-30T02:17:29;21.20;;;14.13;;
39404;SDS011;25121;51.090;17.038;2023-04-30T02:18:52;22.83;;;16.58;;
39404;SDS011;25121;51.090;17.038;2023-04-30T02:20:14;22.75;;;14.88;;
39404;SDS011;25121;51.090;17.038;2023-04-30T02:21:37;22.65;;;15.13;;
39404;SDS011;25121;51.090;17.038;2023-04-30T02:22:58;36.60;;;19.55;;
39404;SDS011;25121;51.090;17.038;2023-04-30T02:24:20;35.03;;;19.85;;
39404;SDS011;25121;51.090;17.038;2023-04-30T02:25:42;43.22;;;19.25;;
39404;SDS011;25121;51.090;17.038;2023-04-30T02:27:05;38.53;;;20.48;;
39404;SDS011;25121;51.090;17.038;2023-04-30T02:28:29;57.10;;;29.65;;
39404;SDS011;25121;51.090;17.038;2023-04-30T02:29:57;48.53;;;24.83;;
39404;SDS011;25121;51.090;17.038;2023-04-30T02:31:20;37.70;;;22.42;;
39404;SDS011;25121;51.090;17.038;2023-04-30T02:34:43;26.10;;;18.08;;
39404;SDS011;25121;51.090;17.038;2023-04-30T02:36:08;22.60;;;14.88;;
39404;SDS011;25121;51.090;17.038;2023-04-30T02:37:32;18.48;;;14.93;;
39404;SDS011;25121;51.090;17.038;2023-04-30T02:38:55;24.10;;;15.98;;
39404;SDS011;25121;51.090;17.038;2023-04-30T02:40:19;18.95;;;14.18;;
39404;SDS011;25121;51.090;17.038;2023-04-30T02:42:05;24.02;;;14.75;;
39404;SDS011;25121;51.090;17.038;2023-04-30T02:43:33;24.38;;;15.10;;
39404;SDS011;25121;51.090;17.038;2023-04-30T02:47:09;21.50;;;14.35;;
39404;SDS011;25121;51.090;17.038;2023-04-30T02:48:31;23.00;;;14.65;;
39404;SDS011;25121;51.090;17.038;2023-04-30T02:49:54;22.55;;;15.10;;
39404;SDS011;25121;51.090;17.038;2023-04-30T02:51:16;18.88;;;13.38;;
39404;SDS011;25121;51.090;17.038;2023-04-30T02:52:37;23.67;;;14.73;;
39404;SDS011;25121;51.090;17.038;2023-04-30T02:54:00;20.00;;;14.15;;
39404;SDS011;25121;51.090;17.038;2023-04-30T02:55:21;24.55;;;14.10;;
39404;SDS011;25121;51.090;17.038;2023-04-30T02:56:44;20.90;;;14.05;;
39404;SDS011;25121;51.090;17.038;2023-04-30T02:58:06;18.35;;;14.75;;
39404;SDS011;25121;51.090;17.038;2023-04-30T02:59:28;21.30;;;13.82;;
39404;SDS011;25121;51.090;17.038;2023-04-30T03:00:55;22.85;;;14.82;;
39404;SDS011;25121;51.090;17.038;2023-04-30T03:02:17;24.08;;;14.80;;
39404;SDS011;25121;51.090;17.038;2023-04-30T03:03:41;19.77;;;13.57;;
39404;SDS011;25121;51.090;17.038;2023-04-30T03:05:04;20.85;;;13.95;;
39404;SDS011;25121;51.090;17.038;2023-04-30T03:06:27;19.60;;;14.40;;
39404;SDS011;25121;51.090;17.038;2023-04-30T03:07:50;20.23;;;13.63;;
39404;SDS011;25121;51.090;17.038;2023-04-30T03:09:13;19.52;;;13.65;;
39404;SDS011;25121;51.090;17.038;2023-04-30T03:10:36;19.75;;;14.38;;
39404;SDS011;25121;51.090;17.038;2023-04-30T03:12:01;23.63;;;14.85;;
39404;SDS011;25121;51.090;17.038;2023-04-30T03:13:24;21.98;;;13.65;;
39404;SDS011;25121;51.090;17.038;2023-04-30T03:14:48;17.98;;;13.05;;
39404;SDS011;25121;51.090;17.038;2023-04-30T03:16:15;18.55;;;14.02;;
39404;SDS011;25121;51.090;17.038;2023-04-30T03:17:39;22.98;;;14.23;;
39404;SDS011;25121;51.090;17.038;2023-04-30T03:19:38;21.45;;;14.40;;
39404;SDS011;25121;51.090;17.038;2023-04-30T03:21:02;22.85;;;13.90;;
39404;SDS011;25121;51.090;17.038;2023-04-30T03:22:35;16.02;;;13.45;;
39404;SDS011;25121;51.090;17.038;2023-04-30T03:23:56;24.63;;;13.70;;
39404;SDS011;25121;51.090;17.038;2023-04-30T03:25:18;19.90;;;14.32;;
39404;SDS011;25121;51.090;17.038;2023-04-30T03:26:41;21.55;;;14.10;;
39404;SDS011;25121;51.090;17.038;2023-04-30T03:28:04;20.05;;;14.10;;
39404;SDS011;25121;51.090;17.038;2023-04-30T03:29:46;20.90;;;13.65;;
39404;SDS011;25121;51.090;17.038;2023-04-30T03:31:25;22.25;;;14.15;;
39404;SDS011;25121;51.090;17.038;2023-04-30T03:32:50;23.63;;;14.63;;
39404;SDS011;25121;51.090;17.038;2023-04-30T03:34:13;21.55;;;13.90;;
39404;SDS011;25121;51.090;17.038;2023-04-30T03:35:34;16.75;;;13.55;;
39404;SDS011;25121;51.090;17.038;2023-04-30T03:36:57;20.98;;;13.80;;
39404;SDS011;25121;51.090;17.038;2023-04-30T03:38:21;16.33;;;13.32;;
39404;SDS011;25121;51.090;17.038;2023-04-30T03:39:42;22.42;;;13.85;;
39404;SDS011;25121;51.090;17.038;2023-04-30T03:41:05;21.23;;;14.38;;
39404;SDS011;25121;51.090;17.038;2023-04-30T03:42:28;19.58;;;13.95;;
39404;SDS011;25121;51.090;17.038;2023-04-30T03:45:03;22.35;;;14.80;;
39404;SDS011;25121;51.090;17.038;2023-04-30T03:47:50;18.40;;;13.38;;
39404;SDS011;25121;51.090;17.038;2023-04-30T03:49:18;23.67;;;13.80;;
39404;SDS011;25121;51.090;17.038;2023-04-30T03:50:50;22.75;;;13.77;;
39404;SDS011;25121;51.090;17.038;2023-04-30T03:52:39;20.25;;;13.30;;
39404;SDS011;25121;51.090;17.038;2023-04-30T03:54:03;21.23;;;13.55;;
39404;SDS011;25121;51.090;17.038;2023-04-30T03:55:28;27.42;;;15.68;;
39404;SDS011;25121;51.090;17.038;2023-04-30T03:56:50;32.45;;;18.23;;
39404;SDS011;25121;51.090;17.038;2023-04-30T03:58:12;35.03;;;19.88;;
39404;SDS011;25121;51.090;17.038;2023-04-30T03:59:36;26.65;;;15.35;;
39404;SDS011;25121;51.090;17.038;2023-04-30T04:02:52;20.77;;;13.82;;
39404;SDS011;25121;51.090;17.038;2023-04-30T04:04:15;21.88;;;13.82;;
39404;SDS011;25121;51.090;17.038;2023-04-30T04:05:44;22.60;;;13.90;;
39404;SDS011;25121;51.090;17.038;2023-04-30T04:07:06;23.02;;;14.30;;
39404;SDS011;25121;51.090;17.038;2023-04-30T04:08:35;20.42;;;13.57;;
39404;SDS011;25121;51.090;17.038;2023-04-30T04:09:59;19.60;;;13.70;;
39404;SDS011;25121;51.090;17.038;2023-04-30T04:11:23;19.42;;;13.57;;
39404;SDS011;25121;51.090;17.038;2023-04-30T04:12:45;23.98;;;13.80;;
39404;SDS011;25121;51.090;17.038;2023-04-30T04:14:08;17.77;;;13.55;;
39404;SDS011;25121;51.090;17.038;2023-04-30T04:15:29;16.60;;;13.07;;
39404;SDS011;25121;51.090;17.038;2023-04-30T04:16:52;22.05;;;14.25;;
39404;SDS011;25121;51.090;17.038;2023-04-30T04:18:15;19.00;;;13.25;;
39404;SDS011;25121;51.090;17.038;2023-04-30T04:19:38;16.63;;;12.45;;
39404;SDS011;25121;51.090;17.038;2023-04-30T04:21:03;18.80;;;12.55;;
39404;SDS011;25121;51.090;17.038;2023-04-30T04:22:29;17.55;;;12.70;;
39404;SDS011;25121;51.090;17.038;2023-04-30T04:23:51;29.60;;;14.23;;
39404;SDS011;25121;51.090;17.038;2023-04-30T04:25:14;19.55;;;12.20;;
39404;SDS011;25121;51.090;17.038;2023-04-30T04:26:40;17.25;;;11.88;;
39404;SDS011;25121;51.090;17.038;2023-04-30T04:28:03;16.85;;;11.88;;
39404;SDS011;25121;51.090;17.038;2023-04-30T04:29:27;14.55;;;11.15;;
39404;SDS011;25121;51.090;17.038;2023-04-30T04:30:56;17.98;;;12.35;;
39404;SDS011;25121;51.090;17.038;2023-04-30T04:32:22;17.10;;;11.45;;
39404;SDS011;25121;51.090;17.038;2023-04-30T04:36:48;19.40;;;12.20;;
39404;SDS011;25121;51.090;17.038;2023-04-30T04:38:24;17.73;;;12.15;;
39404;SDS011;25121;51.090;17.038;2023-04-30T04:39:50;19.13;;;11.32;;
39404;SDS011;25121;51.090;17.038;2023-04-30T04:41:13;16.80;;;11.60;;
39404;SDS011;25121;51.090;17.038;2023-04-30T04:42:36;18.95;;;11.07;;
39404;SDS011;25121;51.090;17.038;2023-04-30T04:44:01;17.63;;;12.07;;
39404;SDS011;25121;51.090;17.038;2023-04-30T04:45:27;14.57;;;10.77;;
39404;SDS011;25121;51.090;17.038;2023-04-30T04:46:53;19.40;;;10.93;;
39404;SDS011;25121;51.090;17.038;2023-04-30T04:48:16;17.77;;;11.07;;
39404;SDS011;25121;51.090;17.038;2023-04-30T04:51:01;20.30;;;12.05;;
39404;SDS011;25121;51.090;17.038;2023-04-30T04:52:25;18.52;;;11.68;;
39404;SDS011;25121;51.090;17.038;2023-04-30T04:53:51;15.98;;;12.18;;
39404;SDS011;25121;51.090;17.038;2023-04-30T04:56:39;18.42;;;11.35;;
39404;SDS011;25121;51.090;17.038;2023-04-30T04:59:23;16.17;;;10.38;;
39404;SDS011;25121;51.090;17.038;2023-04-30T05:00:47;17.80;;;10.98;;
39404;SDS011;25121;51.090;17.038;2023-04-30T05:02:10;13.95;;;10.00;;
39404;SDS011;25121;51.090;17.038;2023-04-30T05:03:35;19.63;;;10.77;;
39404;SDS011;25121;51.090;17.038;2023-04-30T05:04:58;22.40;;;10.38;;
39404;SDS011;25121;51.090;17.038;2023-04-30T05:06:21;17.98;;;10.68;;
39404;SDS011;25121;51.090;17.038;2023-04-30T05:07:48;17.75;;;10.18;;
39404;SDS011;25121;51.090;17.038;2023-04-30T05:09:11;17.50;;;10.95;;
39404;SDS011;25121;51.090;17.038;2023-04-30T05:10:34;15.45;;;10.82;;
39404;SDS011;25121;51.090;17.038;2023-04-30T05:11:56;15.02;;;10.45;;
39404;SDS011;25121;51.090;17.038;2023-04-30T05:13:19;14.88;;;10.18;;
39404;SDS011;25121;51.090;17.038;2023-04-30T05:14:43;16.95;;;10.02;;
39404;SDS011;25121;51.090;17.038;2023-04-30T05:16:07;19.35;;;9.70;;
39404;SDS011;25121;51.090;17.038;2023-04-30T05:17:36;15.65;;;9.30;;
39404;SDS011;25121;51.090;17.038;2023-04-30T05:19:00;19.45;;;10.18;;
39404;SDS011;25121;51.090;17.038;2023-04-30T05:20:22;15.45;;;9.77;;
39404;SDS011;25121;51.090;17.038;2023-04-30T05:21:45;15.10;;;10.10;;
39404;SDS011;25121;51.090;17.038;2023-04-30T05:23:10;13.60;;;9.20;;
39404;SDS011;25121;51.090;17.038;2023-04-30T05:24:33;15.80;;;9.70;;
39404;SDS011;25121;51.090;17.038;2023-04-30T05:25:55;20.05;;;10.32;;
39404;SDS011;25121;51.090;17.038;2023-04-30T05:27:18;19.23;;;10.00;;
39404;SDS011;25121;51.090;17.038;2023-04-30T05:28:39;15.35;;;10.30;;
39404;SDS011;25121;51.090;17.038;2023-04-30T05:30:02;13.60;;;9.15;;
39404;SDS011;25121;51.090;17.038;2023-04-30T05:31:28;16.23;;;9.82;;
39404;SDS011;25121;51.090;17.038;2023-04-30T05:32:51;12.48;;;8.30;;
39404;SDS011;25121;51.090;17.038;2023-04-30T05:34:14;19.92;;;10.65;;
39404;SDS011;25121;51.090;17.038;2023-04-30T05:35:36;16.20;;;9.55;;
39404;SDS011;25121;51.090;17.038;2023-04-30T05:36:59;11.30;;;9.05;;
39404;SDS011;25121;51.090;17.038;2023-04-30T05:39:44;12.38;;;8.88;;
39404;SDS011;25121;51.090;17.038;2023-04-30T05:41:06;17.15;;;8.77;;
39404;SDS011;25121;51.090;17.038;2023-04-30T05:42:29;16.90;;;9.40;;
39404;SDS011;25121;51.090;17.038;2023-04-30T05:43:51;18.00;;;9.75;;
39404;SDS011;25121;51.090;17.038;2023-04-30T05:45:14;13.23;;;9.10;;
39404;SDS011;25121;51.090;17.038;2023-04-30T05:49:51;18.58;;;9.32;;
39404;SDS011;25121;51.090;17.038;2023-04-30T05:51:14;15.15;;;8.82;;
39404;SDS011;25121;51.090;17.038;2023-04-30T05:52:37;16.23;;;8.82;;
39404;SDS011;25121;51.090;17.038;2023-04-30T05:54:02;13.85;;;8.10;;
39404;SDS011;25121;51.090;17.038;2023-04-30T05:55:25;10.15;;;7.97;;
39404;SDS011;25121;51.090;17.038;2023-04-30T05:56:47;17.17;;;8.35;;
39404;SDS011;25121;51.090;17.038;2023-04-30T05:58:10;15.82;;;8.85;;
39404;SDS011;25121;51.090;17.038;2023-04-30T05:59:31;13.15;;;8.48;;
39404;SDS011;25121;51.090;17.038;2023-04-30T06:00:57;13.90;;;8.55;;
39404;SDS011;25121;51.090;17.038;2023-04-30T06:03:41;16.38;;;7.95;;
39404;SDS011;25121;51.090;17.038;2023-04-30T06:05:07;11.95;;;8.05;;
39404;SDS011;25121;51.090;17.038;2023-04-30T06:06:34;14.70;;;8.32;;
39404;SDS011;25121;51.090;17.038;2023-04-30T06:08:04;13.23;;;8.18;;
39404;SDS011;25121;51.090;17.038;2023-04-30T06:09:32;13.07;;;7.72;;
39404;SDS011;25121;51.090;17.038;2023-04-30T06:11:03;13.18;;;8.02;;
39404;SDS011;25121;51.090;17.038;2023-04-30T06:12:42;15.20;;;8.13;;
39404;SDS011;25121;51.090;17.038;2023-04-30T06:14:16;11.90;;;7.93;;
39404;SDS011;25121;51.090;17.038;2023-04-30T06:15:49;15.32;;;7.75;;
39404;SDS011;25121;51.090;17.038;2023-04-30T06:17:37;12.30;;;8.07;;
39404;SDS011;25121;51.090;17.038;2023-04-30T06:19:04;13.77;;;7.78;;
39404;SDS011;25121;51.090;17.038;2023-04-30T06:20:40;15.43;;;7.80;;
39404;SDS011;25121;51.090;17.038;2023-04-30T06:22:04;13.30;;;7.43;;
39404;SDS011;25121;51.090;17.038;2023-04-30T06:23:29;9.15;;;6.78;;
39404;SDS011;25121;51.090;17.038;2023-04-30T06:24:59;14.07;;;8.43;;
39404;SDS011;25121;51.090;17.038;2023-04-30T06:26:21;10.77;;;7.30;;
39404;SDS011;25121;51.090;17.038;2023-04-30T06:27:49;15.52;;;8.60;;
39404;SDS011;25121;51.090;17.038;2023-04-30T06:29:13;10.05;;;7.35;;
39404;SDS011;25121;51.090;17.038;2023-04-30T06:30:46;13.43;;;7.78;;
39404;SDS011;25121;51.090;17.038;2023-04-30T06:32:21;14.13;;;7.65;;
39404;SDS011;25121;51.090;17.038;2023-04-30T06:33:45;14.95;;;7.88;;
39404;SDS011;25121;51.090;17.038;2023-04-30T06:35:16;12.30;;;7.07;;
39404;SDS011;25121;51.090;17.038;2023-04-30T06:36:42;12.02;;;7.55;;
39404;SDS011;25121;51.090;17.038;2023-04-30T06:38:24;13.07;;;7.45;;
39404;SDS011;25121;51.090;17.038;2023-04-30T06:39:49;13.07;;;7.43;;
39404;SDS011;25121;51.090;17.038;2023-04-30T06:41:28;12.05;;;7.13;;
39404;SDS011;25121;51.090;17.038;2023-04-30T06:42:51;12.73;;;6.85;;
39404;SDS011;25121;51.090;17.038;2023-04-30T06:44:46;13.05;;;7.25;;
39404;SDS011;25121;51.090;17.038;2023-04-30T06:46:19;10.35;;;7.47;;
39404;SDS011;25121;51.090;17.038;2023-04-30T06:48:19;12.90;;;7.00;;
39404;SDS011;25121;51.090;17.038;2023-04-30T06:50:24;14.40;;;7.28;;
39404;SDS011;25121;51.090;17.038;2023-04-30T06:52:09;13.95;;;8.35;;
39404;SDS011;25121;51.090;17.038;2023-04-30T06:53:39;10.68;;;6.68;;
39404;SDS011;25121;51.090;17.038;2023-04-30T06:55:17;11.07;;;6.32;;
39404;SDS011;25121;51.090;17.038;2023-04-30T06:58:59;19.38;;;7.20;;
39404;SDS011;25121;51.090;17.038;2023-04-30T07:00:45;15.85;;;7.13;;
39404;SDS011;25121;51.090;17.038;2023-04-30T07:02:36;13.27;;;6.55;;
39404;SDS011;25121;51.090;17.038;2023-04-30T07:04:57;9.63;;;6.75;;
39404;SDS011;25121;51.090;17.038;2023-04-30T07:06:35;11.77;;;6.05;;
39404;SDS011;25121;51.090;17.038;2023-04-30T07:08:12;9.38;;;6.57;;
39404;SDS011;25121;51.090;17.038;2023-04-30T07:09:38;9.70;;;6.50;;
39404;SDS011;25121;51.090;17.038;2023-04-30T07:11:04;10.32;;;6.88;;
39404;SDS011;25121;51.090;17.038;2023-04-30T07:19:42;10.25;;;6.65;;
39404;SDS011;25121;51.090;17.038;2023-04-30T07:21:09;10.57;;;6.03;;
39404;SDS011;25121;51.090;17.038;2023-04-30T07:22:37;11.63;;;6.28;;
39404;SDS011;25121;51.090;17.038;2023-04-30T07:24:10;9.93;;;6.20;;
39404;SDS011;25121;51.090;17.038;2023-04-30T07:25:43;12.93;;;5.75;;
39404;SDS011;25121;51.090;17.038;2023-04-30T07:27:13;12.93;;;5.55;;
39404;SDS011;25121;51.090;17.038;2023-04-30T07:28:39;9.05;;;5.80;;
39404;SDS011;25121;51.090;17.038;2023-04-30T07:30:02;11.95;;;5.20;;
39404;SDS011;25121;51.090;17.038;2023-04-30T07:31:35;11.93;;;5.95;;
39404;SDS011;25121;51.090;17.038;2023-04-30T07:32:57;9.68;;;6.18;;
39404;SDS011;25121;51.090;17.038;2023-04-30T07:34:20;11.07;;;5.90;;
39404;SDS011;25121;51.090;17.038;2023-04-30T07:38:32;9.70;;;5.25;;
39404;SDS011;25121;51.090;17.038;2023-04-30T07:40:08;12.88;;;5.85;;
39404;SDS011;25121;51.090;17.038;2023-04-30T07:41:57;10.87;;;4.73;;
39404;SDS011;25121;51.090;17.038;2023-04-30T07:43:32;10.35;;;5.68;;
39404;SDS011;25121;51.090;17.038;2023-04-30T07:45:20;10.35;;;5.75;;
39404;SDS011;25121;51.090;17.038;2023-04-30T07:46:47;12.10;;;6.10;;
39404;SDS011;25121;51.090;17.038;2023-04-30T07:48:10;10.63;;;5.53;;
39404;SDS011;25121;51.090;17.038;2023-04-30T07:49:33;11.88;;;5.93;;
39404;SDS011;25121;51.090;17.038;2023-04-30T07:50:57;11.65;;;5.78;;
39404;SDS011;25121;51.090;17.038;2023-04-30T07:52:19;9.88;;;5.40;;
39404;SDS011;25121;51.090;17.038;2023-04-30T07:53:54;8.18;;;5.82;;
39404;SDS011;25121;51.090;17.038;2023-04-30T07:56:40;8.90;;;5.03;;
39404;SDS011;25121;51.090;17.038;2023-04-30T08:00:06;10.90;;;5.15;;
39404;SDS011;25121;51.090;17.038;2023-04-30T08:01:33;10.13;;;4.85;;
39404;SDS011;25121;51.090;17.038;2023-04-30T08:03:05;12.13;;;5.00;;
39404;SDS011;25121;51.090;17.038;2023-04-30T08:04:30;9.23;;;4.88;;
39404;SDS011;25121;51.090;17.038;2023-04-30T08:05:56;12.48;;;6.40;;
39404;SDS011;25121;51.090;17.038;2023-04-30T08:07:25;10.68;;;5.47;;
39404;SDS011;25121;51.090;17.038;2023-04-30T08:08:48;7.25;;;4.50;;
39404;SDS011;25121;51.090;17.038;2023-04-30T08:10:12;8.77;;;5.05;;
39404;SDS011;25121;51.090;17.038;2023-04-30T08:11:36;10.65;;;5.07;;
39404;SDS011;25121;51.090;17.038;2023-04-30T08:12:59;16.02;;;5.20;;
39404;SDS011;25121;51.090;17.038;2023-04-30T08:14:24;6.95;;;4.40;;
39404;SDS011;25121;51.090;17.038;2023-04-30T08:15:48;9.98;;;4.93;;
39404;SDS011;25121;51.090;17.038;2023-04-30T08:17:13;8.02;;;4.68;;
39404;SDS011;25121;51.090;17.038;2023-04-30T08:18:35;8.13;;;4.78;;
39404;SDS011;25121;51.090;17.038;2023-04-30T08:19:58;12.65;;;4.82;;
39404;SDS011;25121;51.090;17.038;2023-04-30T08:21:24;8.77;;;4.00;;
39404;SDS011;25121;51.090;17.038;2023-04-30T08:22:47;5.28;;;3.70;;
39404;SDS011;25121;51.090;17.038;2023-04-30T08:24:10;7.78;;;4.50;;
39404;SDS011;25121;51.090;17.038;2023-04-30T08:25:37;8.35;;;4.38;;
39404;SDS011;25121;51.090;17.038;2023-04-30T08:27:00;8.07;;;4.28;;
39404;SDS011;25121;51.090;17.038;2023-04-30T08:28:23;7.40;;;3.60;;
39404;SDS011;25121;51.090;17.038;2023-04-30T08:29:49;7.85;;;3.63;;
39404;SDS011;25121;51.090;17.038;2023-04-30T08:31:25;8.05;;;4.50;;
39404;SDS011;25121;51.090;17.038;2023-04-30T08:33:46;9.55;;;4.40;;
39404;SDS011;25121;51.090;17.038;2023-04-30T08:35:15;5.82;;;3.85;;
39404;SDS011;25121;51.090;17.038;2023-04-30T08:36:52;6.75;;;3.60;;
39404;SDS011;25121;51.090;17.038;2023-04-30T08:38:30;8.10;;;4.13;;
39404;SDS011;25121;51.090;17.038;2023-04-30T08:39:53;7.43;;;3.20;;
39404;SDS011;25121;51.090;17.038;2023-04-30T08:41:25;6.60;;;3.65;;
39404;SDS011;25121;51.090;17.038;2023-04-30T08:42:51;7.25;;;3.88;;
39404;SDS011;25121;51.090;17.038;2023-04-30T08:44:31;6.75;;;3.67;;
39404;SDS011;25121;51.090;17.038;2023-04-30T08:45:55;9.00;;;4.05;;
39404;SDS011;25121;51.090;17.038;2023-04-30T08:47:24;6.70;;;3.25;;
39404;SDS011;25121;51.090;17.038;2023-04-30T08:48:53;11.13;;;3.67;;
39404;SDS011;25121;51.090;17.038;2023-04-30T08:50:23;8.40;;;3.38;;
39404;SDS011;25121;51.090;17.038;2023-04-30T08:51:56;7.50;;;3.45;;
39404;SDS011;25121;51.090;17.038;2023-04-30T08:53:24;6.55;;;3.42;;
39404;SDS011;25121;51.090;17.038;2023-04-30T08:54:56;6.82;;;3.00;;
39404;SDS011;25121;51.090;17.038;2023-04-30T08:56:20;7.22;;;3.00;;
39404;SDS011;25121;51.090;17.038;2023-04-30T08:58:03;6.15;;;2.35;;
39404;SDS011;25121;51.090;17.038;2023-04-30T08:59:36;8.02;;;3.25;;
39404;SDS011;25121;51.090;17.038;2023-04-30T09:01:13;6.20;;;3.13;;
39404;SDS011;25121;51.090;17.038;2023-04-30T09:03:10;6.70;;;3.47;;
39404;SDS011;25121;51.090;17.038;2023-04-30T09:04:37;6.28;;;3.30;;
39404;SDS011;25121;51.090;17.038;2023-04-30T09:06:00;5.88;;;3.33;;
39404;SDS011;25121;51.090;17.038;2023-04-30T09:07:28;10.05;;;3.50;;
39404;SDS011;25121;51.090;17.038;2023-04-30T09:09:36;7.05;;;2.97;;
39404;SDS011;25121;51.090;17.038;2023-04-30T09:11:00;8.73;;;3.08;;
39404;SDS011;25121;51.090;17.038;2023-04-30T09:12:42;6.32;;;3.38;;
39404;SDS011;25121;51.090;17.038;2023-04-30T09:15:47;7.50;;;3.78;;